KSBD/SBD METAR and TAF weather

Enter ICAO airport designator
Station Type Date Time Source
KSBD METAR 2021/04/18 02:51 UTC NOAA

KSBD 180251Z 24007KT 10SM FEW120 22/08 A2992


Station Type Date Time Source
KSBD Decoded METAR 2021/04/18 02:51 UTC NOAA

Norton Air Force Base / San Bern, CA, United States (KSBD) 34-06N 117-14W
Apr 17, 2021 - 10:51 PM EDT / 2021.04.18 0251 UTC
Wind: from the WSW (240 degrees) at 8 MPH (7 KT):0
Visibility: 10 mile(s):0
Sky conditions: mostly clear
Temperature: 71 F (22 C)
Dew Point: 46 F (8 C)
Relative Humidity: 40%
Pressure (altimeter): 29.92 in. Hg (1013 hPa)
ob: KSBD 180251Z 24007KT 10SM FEW120 22/08 A2992
cycle: 3

Station Type Date Time Source
KSBD TAF 2021/04/17 18:32 UTC NOAA

TAF KSBD 171730Z 1718/1818 VRB04KT P6SM SKC
FM172000 34010KT P6SM SKC
FM180600 04002KT P6SM SKC WS015/04020KT
FM181100 04010KT P6SM SKC
FM181500 04015G25KT P6SM SKC
FM181700 04020G30KT P6SM SKC

Example: see airport list